sensor_id;sensor_type;location;lat;lon;timestamp;P1;durP1;ratioP1;P2;durP2;ratioP2
46899;SDS011;32647;49.382;7.078;2022-08-03T00:02:12;3.58;;;3.25;;
46899;SDS011;32647;49.382;7.078;2022-08-03T00:04:57;5.60;;;3.92;;
46899;SDS011;32647;49.382;7.078;2022-08-03T00:07:43;5.88;;;3.42;;
46899;SDS011;32647;49.382;7.078;2022-08-03T00:10:29;5.22;;;3.20;;
46899;SDS011;32647;49.382;7.078;2022-08-03T00:13:15;4.93;;;3.50;;
46899;SDS011;32647;49.382;7.078;2022-08-03T00:16:03;6.45;;;3.95;;
46899;SDS011;32647;49.382;7.078;2022-08-03T00:18:50;3.90;;;3.20;;
46899;SDS011;32647;49.382;7.078;2022-08-03T00:21:36;5.15;;;3.65;;
46899;SDS011;32647;49.382;7.078;2022-08-03T00:24:22;4.70;;;3.65;;
46899;SDS011;32647;49.382;7.078;2022-08-03T00:27:08;5.43;;;3.65;;
46899;SDS011;32647;49.382;7.078;2022-08-03T00:29:54;5.53;;;3.13;;
46899;SDS011;32647;49.382;7.078;2022-08-03T00:32:40;3.45;;;3.10;;
46899;SDS011;32647;49.382;7.078;2022-08-03T00:35:26;3.50;;;3.20;;
46899;SDS011;32647;49.382;7.078;2022-08-03T00:38:13;3.53;;;3.22;;
46899;SDS011;32647;49.382;7.078;2022-08-03T00:40:59;3.58;;;2.90;;
46899;SDS011;32647;49.382;7.078;2022-08-03T00:43:45;5.88;;;3.45;;
46899;SDS011;32647;49.382;7.078;2022-08-03T00:46:32;6.55;;;3.30;;
46899;SDS011;32647;49.382;7.078;2022-08-03T00:49:18;7.32;;;3.63;;
46899;SDS011;32647;49.382;7.078;2022-08-03T00:52:04;6.45;;;3.53;;
46899;SDS011;32647;49.382;7.078;2022-08-03T00:54:50;6.45;;;3.40;;
46899;SDS011;32647;49.382;7.078;2022-08-03T00:57:36;4.18;;;3.30;;
46899;SDS011;32647;49.382;7.078;2022-08-03T01:00:24;5.53;;;3.70;;
46899;SDS011;32647;49.382;7.078;2022-08-03T01:03:11;4.38;;;3.67;;
46899;SDS011;32647;49.382;7.078;2022-08-03T01:05:59;3.55;;;3.25;;
46899;SDS011;32647;49.382;7.078;2022-08-03T01:09:02;6.43;;;3.30;;
46899;SDS011;32647;49.382;7.078;2022-08-03T01:12:01;5.45;;;3.50;;
46899;SDS011;32647;49.382;7.078;2022-08-03T01:15:06;4.85;;;3.45;;
46899;SDS011;32647;49.382;7.078;2022-08-03T01:18:08;4.97;;;3.25;;
46899;SDS011;32647;49.382;7.078;2022-08-03T01:21:09;6.18;;;3.42;;
46899;SDS011;32647;49.382;7.078;2022-08-03T01:30:52;4.97;;;3.60;;
46899;SDS011;32647;49.382;7.078;2022-08-03T01:33:41;4.28;;;3.45;;
46899;SDS011;32647;49.382;7.078;2022-08-03T01:36:32;4.20;;;3.80;;
46899;SDS011;32647;49.382;7.078;2022-08-03T01:39:22;3.92;;;3.53;;
46899;SDS011;32647;49.382;7.078;2022-08-03T01:42:09;7.38;;;4.03;;
46899;SDS011;32647;49.382;7.078;2022-08-03T01:44:58;6.18;;;3.83;;
46899;SDS011;32647;49.382;7.078;2022-08-03T01:47:46;6.25;;;3.75;;
46899;SDS011;32647;49.382;7.078;2022-08-03T01:50:34;4.60;;;3.85;;
46899;SDS011;32647;49.382;7.078;2022-08-03T01:53:20;4.53;;;3.83;;
46899;SDS011;32647;49.382;7.078;2022-08-03T01:56:08;6.20;;;3.97;;
46899;SDS011;32647;49.382;7.078;2022-08-03T01:58:56;4.82;;;3.60;;
46899;SDS011;32647;49.382;7.078;2022-08-03T02:01:45;4.22;;;3.83;;
46899;SDS011;32647;49.382;7.078;2022-08-03T02:04:32;4.72;;;4.20;;
46899;SDS011;32647;49.382;7.078;2022-08-03T02:07:20;6.93;;;4.10;;
46899;SDS011;32647;49.382;7.078;2022-08-03T02:10:06;5.07;;;4.07;;
46899;SDS011;32647;49.382;7.078;2022-08-03T02:12:53;5.90;;;4.00;;
46899;SDS011;32647;49.382;7.078;2022-08-03T02:15:39;5.78;;;3.53;;
46899;SDS011;32647;49.382;7.078;2022-08-03T02:18:26;4.40;;;4.00;;
46899;SDS011;32647;49.382;7.078;2022-08-03T02:21:13;5.05;;;3.78;;
46899;SDS011;32647;49.382;7.078;2022-08-03T02:24:00;4.10;;;3.70;;
46899;SDS011;32647;49.382;7.078;2022-08-03T02:26:47;4.85;;;4.03;;
46899;SDS011;32647;49.382;7.078;2022-08-03T02:29:35;3.88;;;3.55;;
46899;SDS011;32647;49.382;7.078;2022-08-03T02:32:27;5.35;;;4.20;;
46899;SDS011;32647;49.382;7.078;2022-08-03T02:35:15;5.25;;;3.90;;
46899;SDS011;32647;49.382;7.078;2022-08-03T02:38:06;5.07;;;3.30;;
46899;SDS011;32647;49.382;7.078;2022-08-03T02:40:54;7.35;;;4.10;;
46899;SDS011;32647;49.382;7.078;2022-08-03T02:43:44;4.45;;;4.05;;
46899;SDS011;32647;49.382;7.078;2022-08-03T02:46:35;8.02;;;3.90;;
46899;SDS011;32647;49.382;7.078;2022-08-03T02:49:24;6.28;;;4.00;;
46899;SDS011;32647;49.382;7.078;2022-08-03T02:52:11;5.93;;;4.00;;
46899;SDS011;32647;49.382;7.078;2022-08-03T02:54:59;4.95;;;4.00;;
46899;SDS011;32647;49.382;7.078;2022-08-03T02:57:45;5.35;;;3.97;;
46899;SDS011;32647;49.382;7.078;2022-08-03T03:00:33;5.78;;;4.00;;
46899;SDS011;32647;49.382;7.078;2022-08-03T03:03:20;5.97;;;3.70;;
46899;SDS011;32647;49.382;7.078;2022-08-03T03:06:06;5.20;;;4.15;;
46899;SDS011;32647;49.382;7.078;2022-08-03T03:08:53;5.07;;;4.35;;
46899;SDS011;32647;49.382;7.078;2022-08-03T03:11:40;5.20;;;4.45;;
46899;SDS011;32647;49.382;7.078;2022-08-03T03:14:28;5.20;;;4.70;;
46899;SDS011;32647;49.382;7.078;2022-08-03T03:17:15;4.82;;;3.90;;
46899;SDS011;32647;49.382;7.078;2022-08-03T03:20:02;5.80;;;4.57;;
46899;SDS011;32647;49.382;7.078;2022-08-03T03:22:50;8.88;;;3.90;;
46899;SDS011;32647;49.382;7.078;2022-08-03T03:25:36;4.20;;;3.80;;
46899;SDS011;32647;49.382;7.078;2022-08-03T03:28:23;4.93;;;4.00;;
46899;SDS011;32647;49.382;7.078;2022-08-03T03:31:10;5.68;;;4.38;;
46899;SDS011;32647;49.382;7.078;2022-08-03T03:33:56;5.40;;;4.18;;
46899;SDS011;32647;49.382;7.078;2022-08-03T03:36:43;4.70;;;4.28;;
46899;SDS011;32647;49.382;7.078;2022-08-03T03:39:29;7.38;;;4.43;;
46899;SDS011;32647;49.382;7.078;2022-08-03T03:42:15;6.15;;;4.30;;
46899;SDS011;32647;49.382;7.078;2022-08-03T03:45:04;4.95;;;4.45;;
46899;SDS011;32647;49.382;7.078;2022-08-03T03:47:51;4.47;;;4.00;;
46899;SDS011;32647;49.382;7.078;2022-08-03T03:50:37;6.90;;;4.60;;
46899;SDS011;32647;49.382;7.078;2022-08-03T03:53:25;6.03;;;4.40;;
46899;SDS011;32647;49.382;7.078;2022-08-03T03:56:11;5.97;;;4.82;;
46899;SDS011;32647;49.382;7.078;2022-08-03T03:58:57;6.38;;;4.63;;
46899;SDS011;32647;49.382;7.078;2022-08-03T04:01:43;5.32;;;4.07;;
46899;SDS011;32647;49.382;7.078;2022-08-03T04:04:30;6.65;;;4.28;;
46899;SDS011;32647;49.382;7.078;2022-08-03T16:27:52;1.58;;;1.48;;
46899;SDS011;32647;49.382;7.078;2022-08-03T16:30:39;1.60;;;1.50;;
46899;SDS011;32647;49.382;7.078;2022-08-03T16:33:29;2.20;;;1.60;;
46899;SDS011;32647;49.382;7.078;2022-08-03T16:36:15;2.33;;;1.70;;
46899;SDS011;32647;49.382;7.078;2022-08-03T16:39:01;2.45;;;1.60;;
46899;SDS011;32647;49.382;7.078;2022-08-03T16:41:47;4.07;;;2.00;;
46899;SDS011;32647;49.382;7.078;2022-08-03T16:44:33;3.15;;;1.85;;
46899;SDS011;32647;49.382;7.078;2022-08-03T16:47:20;2.67;;;1.73;;
46899;SDS011;32647;49.382;7.078;2022-08-03T16:50:07;3.45;;;1.88;;
46899;SDS011;32647;49.382;7.078;2022-08-03T16:52:53;3.92;;;1.70;;
46899;SDS011;32647;49.382;7.078;2022-08-03T16:55:39;2.65;;;1.83;;
46899;SDS011;32647;49.382;7.078;2022-08-03T16:58:26;2.92;;;1.75;;
46899;SDS011;32647;49.382;7.078;2022-08-03T17:01:12;1.55;;;1.40;;
46899;SDS011;32647;49.382;7.078;2022-08-03T17:03:59;3.55;;;1.75;;
46899;SDS011;32647;49.382;7.078;2022-08-03T17:06:46;2.58;;;1.77;;
46899;SDS011;32647;49.382;7.078;2022-08-03T17:09:32;6.10;;;2.05;;
46899;SDS011;32647;49.382;7.078;2022-08-03T17:12:18;3.97;;;1.77;;
46899;SDS011;32647;49.382;7.078;2022-08-03T17:15:05;2.75;;;1.75;;
46899;SDS011;32647;49.382;7.078;2022-08-03T17:17:55;1.92;;;1.70;;
46899;SDS011;32647;49.382;7.078;2022-08-03T17:20:52;3.70;;;1.30;;
46899;SDS011;32647;49.382;7.078;2022-08-03T17:23:43;2.15;;;1.67;;
46899;SDS011;32647;49.382;7.078;2022-08-03T17:26:36;3.05;;;1.73;;
46899;SDS011;32647;49.382;7.078;2022-08-03T17:29:25;3.17;;;1.60;;
46899;SDS011;32647;49.382;7.078;2022-08-03T17:32:14;2.95;;;1.55;;
46899;SDS011;32647;49.382;7.078;2022-08-03T17:35:02;4.30;;;1.77;;
46899;SDS011;32647;49.382;7.078;2022-08-03T17:37:49;3.17;;;1.88;;
46899;SDS011;32647;49.382;7.078;2022-08-03T17:40:35;3.83;;;2.00;;
46899;SDS011;32647;49.382;7.078;2022-08-03T17:43:21;4.15;;;1.92;;
46899;SDS011;32647;49.382;7.078;2022-08-03T17:46:09;2.80;;;2.10;;
46899;SDS011;32647;49.382;7.078;2022-08-03T17:48:55;2.15;;;1.98;;
46899;SDS011;32647;49.382;7.078;2022-08-03T17:52:25;3.47;;;1.95;;
46899;SDS011;32647;49.382;7.078;2022-08-03T17:55:02;2.05;;;1.65;;
46899;SDS011;32647;49.382;7.078;2022-08-03T17:58:02;2.45;;;1.80;;
46899;SDS011;32647;49.382;7.078;2022-08-03T18:00:57;1.70;;;1.60;;
46899;SDS011;32647;49.382;7.078;2022-08-03T18:04:02;1.80;;;1.58;;
46899;SDS011;32647;49.382;7.078;2022-08-03T18:06:49;4.45;;;1.98;;
46899;SDS011;32647;49.382;7.078;2022-08-03T18:09:36;2.60;;;1.77;;
46899;SDS011;32647;49.382;7.078;2022-08-03T18:12:28;2.88;;;1.77;;
46899;SDS011;32647;49.382;7.078;2022-08-03T18:15:28;3.88;;;1.77;;
46899;SDS011;32647;49.382;7.078;2022-08-03T18:18:25;2.08;;;1.55;;
46899;SDS011;32647;49.382;7.078;2022-08-03T18:21:17;2.47;;;1.80;;
46899;SDS011;32647;49.382;7.078;2022-08-03T18:24:03;3.35;;;1.80;;
46899;SDS011;32647;49.382;7.078;2022-08-03T18:26:50;2.70;;;1.60;;
46899;SDS011;32647;49.382;7.078;2022-08-03T18:29:38;2.70;;;1.65;;
46899;SDS011;32647;49.382;7.078;2022-08-03T18:32:27;2.67;;;1.95;;
46899;SDS011;32647;49.382;7.078;2022-08-03T18:35:14;1.90;;;1.70;;
46899;SDS011;32647;49.382;7.078;2022-08-03T18:38:01;4.55;;;2.13;;
46899;SDS011;32647;49.382;7.078;2022-08-03T18:40:47;2.97;;;1.90;;
46899;SDS011;32647;49.382;7.078;2022-08-03T18:43:34;6.07;;;1.90;;
46899;SDS011;32647;49.382;7.078;2022-08-03T18:49:23;3.10;;;1.98;;
46899;SDS011;32647;49.382;7.078;2022-08-03T18:52:30;3.22;;;2.10;;
46899;SDS011;32647;49.382;7.078;2022-08-03T18:55:31;8.00;;;2.70;;
46899;SDS011;32647;49.382;7.078;2022-08-03T18:58:45;5.82;;;2.35;;
46899;SDS011;32647;49.382;7.078;2022-08-03T19:01:37;5.80;;;2.80;;
46899;SDS011;32647;49.382;7.078;2022-08-03T19:07:14;10.77;;;2.80;;
46899;SDS011;32647;49.382;7.078;2022-08-03T19:10:09;5.75;;;2.95;;
46899;SDS011;32647;49.382;7.078;2022-08-03T19:13:17;6.18;;;3.50;;
46899;SDS011;32647;49.382;7.078;2022-08-03T19:16:08;4.80;;;3.90;;
46899;SDS011;32647;49.382;7.078;2022-08-03T19:19:01;3.55;;;2.92;;
46899;SDS011;32647;49.382;7.078;2022-08-03T19:21:52;5.07;;;2.75;;
46899;SDS011;32647;49.382;7.078;2022-08-03T19:24:39;6.63;;;2.58;;
46899;SDS011;32647;49.382;7.078;2022-08-03T19:27:27;8.52;;;2.47;;
46899;SDS011;32647;49.382;7.078;2022-08-03T19:30:15;5.88;;;2.50;;
46899;SDS011;32647;49.382;7.078;2022-08-03T19:33:20;5.90;;;2.38;;
46899;SDS011;32647;49.382;7.078;2022-08-03T19:36:10;5.15;;;2.50;;
46899;SDS011;32647;49.382;7.078;2022-08-03T19:38:59;4.57;;;2.72;;
46899;SDS011;32647;49.382;7.078;2022-08-03T19:41:47;2.97;;;2.65;;
46899;SDS011;32647;49.382;7.078;2022-08-03T19:44:35;4.10;;;3.20;;
46899;SDS011;32647;49.382;7.078;2022-08-03T19:47:28;4.50;;;2.85;;
46899;SDS011;32647;49.382;7.078;2022-08-03T19:50:24;4.57;;;2.80;;
46899;SDS011;32647;49.382;7.078;2022-08-03T19:53:14;6.40;;;2.90;;
46899;SDS011;32647;49.382;7.078;2022-08-03T19:56:03;7.78;;;2.70;;
46899;SDS011;32647;49.382;7.078;2022-08-03T19:58:51;8.38;;;3.30;;
46899;SDS011;32647;49.382;7.078;2022-08-03T20:01:40;11.45;;;3.17;;
46899;SDS011;32647;49.382;7.078;2022-08-03T20:04:29;6.60;;;2.60;;
46899;SDS011;32647;49.382;7.078;2022-08-03T20:07:15;4.57;;;2.88;;
46899;SDS011;32647;49.382;7.078;2022-08-03T20:10:03;4.10;;;2.60;;
46899;SDS011;32647;49.382;7.078;2022-08-03T20:12:50;6.43;;;2.85;;
46899;SDS011;32647;49.382;7.078;2022-08-03T20:15:37;4.90;;;2.83;;
46899;SDS011;32647;49.382;7.078;2022-08-03T20:18:24;3.28;;;2.83;;
46899;SDS011;32647;49.382;7.078;2022-08-03T20:21:11;6.05;;;2.63;;
46899;SDS011;32647;49.382;7.078;2022-08-03T20:23:59;5.05;;;2.92;;
46899;SDS011;32647;49.382;7.078;2022-08-03T20:26:52;4.55;;;2.92;;
46899;SDS011;32647;49.382;7.078;2022-08-03T20:29:43;3.10;;;2.78;;
46899;SDS011;32647;49.382;7.078;2022-08-03T20:32:31;4.60;;;3.13;;
46899;SDS011;32647;49.382;7.078;2022-08-03T20:35:18;5.75;;;3.40;;
46899;SDS011;32647;49.382;7.078;2022-08-03T20:38:04;7.40;;;3.78;;
46899;SDS011;32647;49.382;7.078;2022-08-03T20:40:51;5.20;;;3.10;;
46899;SDS011;32647;49.382;7.078;2022-08-03T20:43:38;6.78;;;3.38;;
46899;SDS011;32647;49.382;7.078;2022-08-03T20:46:25;5.25;;;3.03;;
46899;SDS011;32647;49.382;7.078;2022-08-03T20:49:11;4.78;;;2.80;;
46899;SDS011;32647;49.382;7.078;2022-08-03T20:51:57;7.43;;;3.17;;
46899;SDS011;32647;49.382;7.078;2022-08-03T20:54:44;4.03;;;2.63;;
46899;SDS011;32647;49.382;7.078;2022-08-03T20:57:30;4.82;;;2.88;;
46899;SDS011;32647;49.382;7.078;2022-08-03T21:00:18;5.55;;;3.10;;
46899;SDS011;32647;49.382;7.078;2022-08-03T21:03:04;3.60;;;3.10;;
46899;SDS011;32647;49.382;7.078;2022-08-03T21:05:51;9.98;;;5.60;;
46899;SDS011;32647;49.382;7.078;2022-08-03T21:08:41;7.20;;;4.60;;
46899;SDS011;32647;49.382;7.078;2022-08-03T21:11:35;6.93;;;4.40;;
46899;SDS011;32647;49.382;7.078;2022-08-03T21:17:16;3.95;;;3.00;;
46899;SDS011;32647;49.382;7.078;2022-08-03T21:20:07;5.35;;;2.90;;
46899;SDS011;32647;49.382;7.078;2022-08-03T21:22:55;6.63;;;3.47;;
46899;SDS011;32647;49.382;7.078;2022-08-03T21:25:44;6.15;;;3.75;;
46899;SDS011;32647;49.382;7.078;2022-08-03T21:28:33;4.95;;;3.50;;
46899;SDS011;32647;49.382;7.078;2022-08-03T21:31:20;6.30;;;4.00;;
46899;SDS011;32647;49.382;7.078;2022-08-03T21:34:07;7.78;;;4.55;;
46899;SDS011;32647;49.382;7.078;2022-08-03T21:36:53;7.18;;;4.57;;
46899;SDS011;32647;49.382;7.078;2022-08-03T21:39:40;6.93;;;4.30;;
46899;SDS011;32647;49.382;7.078;2022-08-03T21:42:29;5.13;;;3.50;;
46899;SDS011;32647;49.382;7.078;2022-08-03T21:45:15;4.82;;;3.35;;
46899;SDS011;32647;49.382;7.078;2022-08-03T21:48:02;5.40;;;3.13;;
46899;SDS011;32647;49.382;7.078;2022-08-03T21:50:49;3.50;;;3.20;;
46899;SDS011;32647;49.382;7.078;2022-08-03T21:53:36;7.47;;;2.92;;
46899;SDS011;32647;49.382;7.078;2022-08-03T21:56:22;4.10;;;3.15;;
46899;SDS011;32647;49.382;7.078;2022-08-03T21:59:15;4.25;;;2.80;;
46899;SDS011;32647;49.382;7.078;2022-08-03T22:02:02;9.15;;;3.00;;
46899;SDS011;32647;49.382;7.078;2022-08-03T22:04:49;3.92;;;2.80;;
46899;SDS011;32647;49.382;7.078;2022-08-03T22:07:36;4.18;;;2.75;;
46899;SDS011;32647;49.382;7.078;2022-08-03T22:10:22;3.17;;;2.80;;
46899;SDS011;32647;49.382;7.078;2022-08-03T22:13:08;6.30;;;3.00;;
46899;SDS011;32647;49.382;7.078;2022-08-03T22:15:56;6.90;;;3.00;;
46899;SDS011;32647;49.382;7.078;2022-08-03T22:18:43;7.22;;;2.78;;
46899;SDS011;32647;49.382;7.078;2022-08-03T22:21:30;3.63;;;3.25;;
46899;SDS011;32647;49.382;7.078;2022-08-03T22:24:20;5.95;;;2.95;;
46899;SDS011;32647;49.382;7.078;2022-08-03T22:27:10;3.03;;;2.72;;
46899;SDS011;32647;49.382;7.078;2022-08-03T22:30:16;6.28;;;3.13;;
46899;SDS011;32647;49.382;7.078;2022-08-03T22:33:04;6.32;;;2.97;;
46899;SDS011;32647;49.382;7.078;2022-08-03T22:35:54;4.72;;;2.90;;
46899;SDS011;32647;49.382;7.078;2022-08-03T22:38:41;3.25;;;2.95;;
46899;SDS011;32647;49.382;7.078;2022-08-03T22:41:29;4.32;;;3.13;;
46899;SDS011;32647;49.382;7.078;2022-08-03T22:44:15;4.97;;;2.90;;
46899;SDS011;32647;49.382;7.078;2022-08-03T22:47:02;3.15;;;2.85;;
46899;SDS011;32647;49.382;7.078;2022-08-03T22:49:49;7.20;;;3.00;;
46899;SDS011;32647;49.382;7.078;2022-08-03T22:52:42;5.55;;;2.53;;
46899;SDS011;32647;49.382;7.078;2022-08-03T22:55:28;4.97;;;3.13;;
46899;SDS011;32647;49.382;7.078;2022-08-03T22:58:15;4.13;;;2.90;;
46899;SDS011;32647;49.382;7.078;2022-08-03T23:01:06;4.57;;;2.88;;
46899;SDS011;32647;49.382;7.078;2022-08-03T23:03:57;3.22;;;2.92;;
46899;SDS011;32647;49.382;7.078;2022-08-03T23:06:46;4.82;;;3.03;;
46899;SDS011;32647;49.382;7.078;2022-08-03T23:09:35;5.93;;;3.50;;
46899;SDS011;32647;49.382;7.078;2022-08-03T23:12:22;8.45;;;3.35;;
46899;SDS011;32647;49.382;7.078;2022-08-03T23:15:09;4.75;;;3.38;;
46899;SDS011;32647;49.382;7.078;2022-08-03T23:17:57;3.58;;;3.28;;
46899;SDS011;32647;49.382;7.078;2022-08-03T23:20:51;7.22;;;2.80;;
46899;SDS011;32647;49.382;7.078;2022-08-03T23:23:37;3.30;;;3.00;;
46899;SDS011;32647;49.382;7.078;2022-08-03T23:26:25;5.30;;;3.50;;
46899;SDS011;32647;49.382;7.078;2022-08-03T23:29:13;4.53;;;3.10;;
46899;SDS011;32647;49.382;7.078;2022-08-03T23:32:01;4.65;;;3.08;;
46899;SDS011;32647;49.382;7.078;2022-08-03T23:34:48;4.38;;;3.05;;
46899;SDS011;32647;49.382;7.078;2022-08-03T23:37:55;3.85;;;3.10;;
46899;SDS011;32647;49.382;7.078;2022-08-03T23:40:41;4.03;;;3.08;;
46899;SDS011;32647;49.382;7.078;2022-08-03T23:43:29;4.57;;;3.28;;
46899;SDS011;32647;49.382;7.078;2022-08-03T23:46:17;4.18;;;2.83;;
46899;SDS011;32647;49.382;7.078;2022-08-03T23:49:08;3.55;;;3.00;;
46899;SDS011;32647;49.382;7.078;2022-08-03T23:52:02;3.63;;;3.20;;
46899;SDS011;32647;49.382;7.078;2022-08-03T23:55:00;5.50;;;3.05;;
